sensor_id;sensor_type;location;lat;lon;timestamp;pressure;altitude;pressure_sealevel;temperature;humidity
28428;BME280;15662;49.128;8.520;2022-11-12T00:02:26;102148.22;;;14.26;57.78
28428;BME280;15662;49.128;8.520;2022-11-12T00:05:13;102141.09;;;14.27;57.85
28428;BME280;15662;49.128;8.520;2022-11-12T00:08:00;102147.38;;;14.24;57.97
28428;BME280;15662;49.128;8.520;2022-11-12T00:10:47;102146.47;;;14.25;58.16
28428;BME280;15662;49.128;8.520;2022-11-12T00:13:34;102144.69;;;14.26;58.17
28428;BME280;15662;49.128;8.520;2022-11-12T00:16:20;102142.03;;;14.23;58.15
28428;BME280;15662;49.128;8.520;2022-11-12T00:19:07;102143.75;;;14.30;58.13
28428;BME280;15662;49.128;8.520;2022-11-12T00:21:54;102143.72;;;14.31;58.02
28428;BME280;15662;49.128;8.520;2022-11-12T00:24:41;102141.91;;;14.32;58.01
28428;BME280;15662;49.128;8.520;2022-11-12T00:27:27;102137.50;;;14.31;57.75
28428;BME280;15662;49.128;8.520;2022-11-12T00:30:15;102142.84;;;14.31;57.70
28428;BME280;15662;49.128;8.520;2022-11-12T00:33:03;102141.94;;;14.30;57.83
28428;BME280;15662;49.128;8.520;2022-11-12T00:35:49;102148.19;;;14.28;57.65
28428;BME280;15662;49.128;8.520;2022-11-12T00:38:36;102143.81;;;14.22;57.58
28428;BME280;15662;49.128;8.520;2022-11-12T00:41:22;102143.84;;;14.20;57.71
28428;BME280;15662;49.128;8.520;2022-11-12T00:44:09;102136.72;;;14.21;57.71
28428;BME280;15662;49.128;8.520;2022-11-12T00:46:56;102126.09;;;14.19;57.80
28428;BME280;15662;49.128;8.520;2022-11-12T00:49:42;102119.88;;;14.19;57.75
28428;BME280;15662;49.128;8.520;2022-11-12T00:52:29;102137.63;;;14.18;57.66
28428;BME280;15662;49.128;8.520;2022-11-12T00:55:15;102139.44;;;14.18;57.49
28428;BME280;15662;49.128;8.520;2022-11-12T00:58:02;102132.31;;;14.17;57.62
28428;BME280;15662;49.128;8.520;2022-11-12T01:00:49;102134.97;;;14.18;57.75
28428;BME280;15662;49.128;8.520;2022-11-12T01:03:43;102143.88;;;14.17;57.72
28428;BME280;15662;49.128;8.520;2022-11-12T01:06:29;102135.88;;;14.17;57.65
28428;BME280;15662;49.128;8.520;2022-11-12T01:09:16;102129.69;;;14.15;57.78
28428;BME280;15662;49.128;8.520;2022-11-12T01:12:04;102136.78;;;14.16;57.73
28428;BME280;15662;49.128;8.520;2022-11-12T01:14:51;102136.78;;;14.16;57.91
28428;BME280;15662;49.128;8.520;2022-11-12T01:17:38;102136.78;;;14.16;57.95
28428;BME280;15662;49.128;8.520;2022-11-12T01:20:25;102141.22;;;14.17;57.85
28428;BME280;15662;49.128;8.520;2022-11-12T01:23:11;102134.09;;;14.18;57.85
28428;BME280;15662;49.128;8.520;2022-11-12T01:26:02;102132.31;;;14.18;57.70
28428;BME280;15662;49.128;8.520;2022-11-12T01:28:50;102134.97;;;14.20;57.74
28428;BME280;15662;49.128;8.520;2022-11-12T01:31:37;102136.72;;;14.21;57.71
28428;BME280;15662;49.128;8.520;2022-11-12T01:34:25;102129.63;;;14.20;57.89
28428;BME280;15662;49.128;8.520;2022-11-12T01:37:12;102138.44;;;14.27;57.90
28428;BME280;15662;49.128;8.520;2022-11-12T01:39:59;102123.31;;;14.27;57.85
28428;BME280;15662;49.128;8.520;2022-11-12T01:42:52;102121.50;;;14.28;57.63
28428;BME280;15662;49.128;8.520;2022-11-12T01:45:43;102114.44;;;14.27;57.55
28428;BME280;15662;49.128;8.520;2022-11-12T01:48:37;102118.84;;;14.28;57.53
28428;BME280;15662;49.128;8.520;2022-11-12T01:51:35;102115.34;;;14.26;57.64
28428;BME280;15662;49.128;8.520;2022-11-12T01:54:23;102115.34;;;14.23;57.66
28428;BME280;15662;49.128;8.520;2022-11-12T01:57:13;102105.63;;;14.20;57.64
28428;BME280;15662;49.128;8.520;2022-11-12T02:00:07;102111.84;;;14.20;57.67
28428;BME280;15662;49.128;8.520;2022-11-12T02:02:59;102108.28;;;14.22;57.60
28428;BME280;15662;49.128;8.520;2022-11-12T02:05:48;102107.38;;;14.21;57.62
28428;BME280;15662;49.128;8.520;2022-11-12T02:08:37;102096.78;;;14.16;57.68
28428;BME280;15662;49.128;8.520;2022-11-12T02:11:25;102100.34;;;14.15;57.58
28428;BME280;15662;49.128;8.520;2022-11-12T02:14:12;102091.47;;;14.13;57.62
28428;BME280;15662;49.128;8.520;2022-11-12T02:17:00;102110.16;;;14.13;57.56
28428;BME280;15662;49.128;8.520;2022-11-12T02:19:47;102103.06;;;14.12;57.67
28428;BME280;15662;49.128;8.520;2022-11-12T02:22:34;102101.25;;;14.13;57.60
28428;BME280;15662;49.128;8.520;2022-11-12T02:25:22;102100.38;;;14.14;57.56
28428;BME280;15662;49.128;8.520;2022-11-12T02:28:09;102093.31;;;14.10;57.51
28428;BME280;15662;49.128;8.520;2022-11-12T02:30:56;102098.66;;;14.10;57.51
28428;BME280;15662;49.128;8.520;2022-11-12T02:33:43;102100.47;;;14.06;57.59
28428;BME280;15662;49.128;8.520;2022-11-12T02:36:29;102090.72;;;14.04;57.54
28428;BME280;15662;49.128;8.520;2022-11-12T02:39:16;102097.84;;;14.02;57.59
28428;BME280;15662;49.128;8.520;2022-11-12T02:42:03;102091.69;;;14.00;57.47
28428;BME280;15662;49.128;8.520;2022-11-12T02:44:50;102095.22;;;13.99;57.37
28428;BME280;15662;49.128;8.520;2022-11-12T02:47:36;102098.78;;;13.98;57.34
28428;BME280;15662;49.128;8.520;2022-11-12T02:50:23;102092.56;;;13.99;57.52
28428;BME280;15662;49.128;8.520;2022-11-12T02:53:10;102094.38;;;13.97;57.58
28428;BME280;15662;49.128;8.520;2022-11-12T02:55:58;102098.81;;;13.96;57.45
28428;BME280;15662;49.128;8.520;2022-11-12T02:58:45;102095.31;;;13.92;57.62
28428;BME280;15662;49.128;8.520;2022-11-12T03:01:32;102098.88;;;13.91;57.61
28428;BME280;15662;49.128;8.520;2022-11-12T03:04:19;102100.69;;;13.89;57.51
28428;BME280;15662;49.128;8.520;2022-11-12T03:07:06;102100.72;;;13.86;57.49
28428;BME280;15662;49.128;8.520;2022-11-12T03:09:53;102098.97;;;13.82;57.46
28428;BME280;15662;49.128;8.520;2022-11-12T03:12:39;102099.84;;;13.83;57.64
28428;BME280;15662;49.128;8.520;2022-11-12T03:15:27;102098.09;;;13.82;57.50
28428;BME280;15662;49.128;8.520;2022-11-12T03:18:14;102105.19;;;13.83;57.71
28428;BME280;15662;49.128;8.520;2022-11-12T03:21:02;102096.28;;;13.85;57.91
28428;BME280;15662;49.128;8.520;2022-11-12T03:23:48;102102.47;;;13.87;57.79
28428;BME280;15662;49.128;8.520;2022-11-12T03:26:35;102104.25;;;13.87;57.62
28428;BME280;15662;49.128;8.520;2022-11-12T03:29:22;102099.78;;;13.89;57.72
28428;BME280;15662;49.128;8.520;2022-11-12T03:32:09;102101.63;;;13.85;57.82
28428;BME280;15662;49.128;8.520;2022-11-12T03:34:56;102100.75;;;13.83;57.89
28428;BME280;15662;49.128;8.520;2022-11-12T03:38:04;102097.25;;;13.80;57.88
28428;BME280;15662;49.128;8.520;2022-11-12T03:40:51;102100.75;;;13.85;57.91
28428;BME280;15662;49.128;8.520;2022-11-12T03:43:37;102099.84;;;13.83;57.76
28428;BME280;15662;49.128;8.520;2022-11-12T03:46:24;102099.00;;;13.81;57.85
28428;BME280;15662;49.128;8.520;2022-11-12T03:49:12;102105.25;;;13.80;57.91
28428;BME280;15662;49.128;8.520;2022-11-12T03:51:58;102093.72;;;13.76;57.97
28428;BME280;15662;49.128;8.520;2022-11-12T03:54:44;102092.81;;;13.77;57.79
28428;BME280;15662;49.128;8.520;2022-11-12T03:57:31;102097.28;;;13.77;57.93
28428;BME280;15662;49.128;8.520;2022-11-12T04:00:21;102096.41;;;13.76;57.73
28428;BME280;15662;49.128;8.520;2022-11-12T04:03:07;102087.56;;;13.71;57.74
28428;BME280;15662;49.128;8.520;2022-11-12T04:05:54;102093.81;;;13.70;57.80
28428;BME280;15662;49.128;8.520;2022-11-12T04:09:00;102093.84;;;13.65;57.99
28428;BME280;15662;49.128;8.520;2022-11-12T04:11:46;102092.06;;;13.66;57.86
28428;BME280;15662;49.128;8.520;2022-11-12T04:14:34;102085.88;;;13.62;57.85
28428;BME280;15662;49.128;8.520;2022-11-12T04:17:20;102091.25;;;13.61;57.89
28428;BME280;15662;49.128;8.520;2022-11-12T04:20:26;102093.91;;;13.61;57.91
28428;BME280;15662;49.128;8.520;2022-11-12T04:23:51;102088.56;;;13.61;58.02
28428;BME280;15662;49.128;8.520;2022-11-12T04:26:38;102081.44;;;13.63;57.96
28428;BME280;15662;49.128;8.520;2022-11-12T04:29:25;102086.75;;;13.64;57.76
28428;BME280;15662;49.128;8.520;2022-11-12T04:32:35;102086.75;;;13.66;57.86
28428;BME280;15662;49.128;8.520;2022-11-12T04:35:26;102087.59;;;13.68;57.98
28428;BME280;15662;49.128;8.520;2022-11-12T04:38:12;102082.28;;;13.66;57.89
28428;BME280;15662;49.128;8.520;2022-11-12T04:40:59;102082.28;;;13.66;57.94
28428;BME280;15662;49.128;8.520;2022-11-12T04:44:05;102087.63;;;13.63;57.94
28428;BME280;15662;49.128;8.520;2022-11-12T04:47:10;102091.19;;;13.65;57.86
28428;BME280;15662;49.128;8.520;2022-11-12T04:49:57;102100.03;;;13.67;57.70
28428;BME280;15662;49.128;8.520;2022-11-12T04:52:44;102093.84;;;13.65;57.76
28428;BME280;15662;49.128;8.520;2022-11-12T04:55:32;102093.81;;;13.67;57.87
28428;BME280;15662;49.128;8.520;2022-11-12T04:58:19;102087.63;;;13.66;57.94
28428;BME280;15662;49.128;8.520;2022-11-12T05:01:05;102092.06;;;13.66;57.83
28428;BME280;15662;49.128;8.520;2022-11-12T05:03:52;102084.06;;;13.66;57.93
28428;BME280;15662;49.128;8.520;2022-11-12T05:06:38;102084.09;;;13.64;58.03
28428;BME280;15662;49.128;8.520;2022-11-12T05:09:37;102082.31;;;13.63;57.90
28428;BME280;15662;49.128;8.520;2022-11-12T05:12:25;102092.16;;;13.60;58.10
28428;BME280;15662;49.128;8.520;2022-11-12T05:15:11;102091.31;;;13.53;58.24
28428;BME280;15662;49.128;8.520;2022-11-12T05:17:59;102082.50;;;13.47;57.95
28428;BME280;15662;49.128;8.520;2022-11-12T05:20:46;102082.56;;;13.42;58.25
28428;BME280;15662;49.128;8.520;2022-11-12T05:23:32;102072.84;;;13.36;58.53
28428;BME280;15662;49.128;8.520;2022-11-12T05:26:19;102074.66;;;13.30;58.29
28428;BME280;15662;49.128;8.520;2022-11-12T05:29:05;102081.81;;;13.26;58.38
28428;BME280;15662;49.128;8.520;2022-11-12T05:31:54;102082.72;;;13.27;58.42
28428;BME280;15662;49.128;8.520;2022-11-12T05:34:41;102082.69;;;13.28;58.49
28428;BME280;15662;49.128;8.520;2022-11-12T05:37:29;102081.78;;;13.31;58.42
28428;BME280;15662;49.128;8.520;2022-11-12T05:40:16;102079.97;;;13.33;58.35
28428;BME280;15662;49.128;8.520;2022-11-12T05:43:02;102089.75;;;13.32;58.09
28428;BME280;15662;49.128;8.520;2022-11-12T05:45:49;102091.50;;;13.36;58.23
28428;BME280;15662;49.128;8.520;2022-11-12T05:48:35;102091.47;;;13.38;57.90
28428;BME280;15662;49.128;8.520;2022-11-12T05:51:23;102093.25;;;13.37;57.87
28428;BME280;15662;49.128;8.520;2022-11-12T05:54:10;102090.66;;;13.30;57.98
28428;BME280;15662;49.128;8.520;2022-11-12T05:56:58;102094.25;;;13.27;57.81
28428;BME280;15662;49.128;8.520;2022-11-12T05:59:44;102090.72;;;13.21;57.91
28428;BME280;15662;49.128;8.520;2022-11-12T06:02:31;102088.94;;;13.23;57.97
28428;BME280;15662;49.128;8.520;2022-11-12T06:05:18;102098.72;;;13.25;57.97
28428;BME280;15662;49.128;8.520;2022-11-12T06:08:05;102105.78;;;13.28;58.08
28428;BME280;15662;49.128;8.520;2022-11-12T06:10:53;102108.44;;;13.28;57.84
28428;BME280;15662;49.128;8.520;2022-11-12T06:13:41;102111.13;;;13.26;57.88
28428;BME280;15662;49.128;8.520;2022-11-12T06:16:28;102118.22;;;13.27;57.95
28428;BME280;15662;49.128;8.520;2022-11-12T06:19:17;102120.84;;;13.29;57.82
28428;BME280;15662;49.128;8.520;2022-11-12T06:22:03;102111.06;;;13.31;58.01
28428;BME280;15662;49.128;8.520;2022-11-12T06:24:50;102119.03;;;13.32;57.94
28428;BME280;15662;49.128;8.520;2022-11-12T06:27:37;102126.16;;;13.32;57.97
28428;BME280;15662;49.128;8.520;2022-11-12T06:30:24;102111.06;;;13.32;57.85
28428;BME280;15662;49.128;8.520;2022-11-12T06:33:11;102116.41;;;13.31;57.59
28428;BME280;15662;49.128;8.520;2022-11-12T06:35:59;102122.59;;;13.30;57.49
28428;BME280;15662;49.128;8.520;2022-11-12T06:38:48;102126.22;;;13.23;57.57
28428;BME280;15662;49.128;8.520;2022-11-12T06:41:35;102139.56;;;13.23;57.64
28428;BME280;15662;49.128;8.520;2022-11-12T06:44:22;102128.03;;;13.17;57.43
28428;BME280;15662;49.128;8.520;2022-11-12T06:47:09;102132.44;;;13.18;57.44
28428;BME280;15662;49.128;8.520;2022-11-12T06:49:56;102132.50;;;13.15;57.63
28428;BME280;15662;49.128;8.520;2022-11-12T06:52:42;102135.16;;;13.14;57.66
28428;BME280;15662;49.128;8.520;2022-11-12T06:55:29;102137.81;;;13.15;57.78
28428;BME280;15662;49.128;8.520;2022-11-12T06:58:16;102129.81;;;13.15;57.59
28428;BME280;15662;49.128;8.520;2022-11-12T07:01:15;102128.91;;;13.16;57.35
28428;BME280;15662;49.128;8.520;2022-11-12T07:04:02;102130.69;;;13.14;57.71
28428;BME280;15662;49.128;8.520;2022-11-12T07:06:49;102120.94;;;13.13;57.44
28428;BME280;15662;49.128;8.520;2022-11-12T07:09:36;102132.50;;;13.15;57.42
28428;BME280;15662;49.128;8.520;2022-11-12T07:12:23;102125.38;;;13.14;57.47
28428;BME280;15662;49.128;8.520;2022-11-12T07:15:10;102127.16;;;13.15;57.38
28428;BME280;15662;49.128;8.520;2022-11-12T07:17:56;102114.72;;;13.14;57.51
28428;BME280;15662;49.128;8.520;2022-11-12T07:20:43;102119.16;;;13.17;57.43
28428;BME280;15662;49.128;8.520;2022-11-12T07:23:32;102114.72;;;13.17;57.21
28428;BME280;15662;49.128;8.520;2022-11-12T07:26:22;102127.16;;;13.15;57.09
28428;BME280;15662;49.128;8.520;2022-11-12T07:29:09;102129.84;;;13.12;57.22
28428;BME280;15662;49.128;8.520;2022-11-12T07:31:57;102126.31;;;13.10;57.24
28428;BME280;15662;49.128;8.520;2022-11-12T07:34:44;102116.56;;;13.08;57.19
28428;BME280;15662;49.128;8.520;2022-11-12T07:37:30;102121.00;;;13.07;57.29
28428;BME280;15662;49.128;8.520;2022-11-12T07:40:19;102116.59;;;13.06;57.39
28428;BME280;15662;49.128;8.520;2022-11-12T07:43:07;102121.91;;;13.06;57.34
28428;BME280;15662;49.128;8.520;2022-11-12T07:46:00;102126.28;;;13.12;57.18
28428;BME280;15662;49.128;8.520;2022-11-12T07:49:02;102125.41;;;13.11;57.23
28428;BME280;15662;49.128;8.520;2022-11-12T07:51:49;102103.28;;;13.06;57.58
28428;BME280;15662;49.128;8.520;2022-11-12T07:54:36;102098.81;;;13.07;57.23
28428;BME280;15662;49.128;8.520;2022-11-12T07:57:23;102106.78;;;13.10;57.18
28428;BME280;15662;49.128;8.520;2022-11-12T08:00:11;102097.94;;;13.05;56.97
28428;BME280;15662;49.128;8.520;2022-11-12T08:03:03;102096.19;;;13.04;56.98
28428;BME280;15662;49.128;8.520;2022-11-12T08:05:50;102100.59;;;13.05;57.34
28428;BME280;15662;49.128;8.520;2022-11-12T08:08:39;102101.50;;;13.04;57.32
28428;BME280;15662;49.128;8.520;2022-11-12T08:11:26;102101.53;;;13.02;57.30
28428;BME280;15662;49.128;8.520;2022-11-12T08:14:13;102103.31;;;13.00;57.24
28428;BME280;15662;49.128;8.520;2022-11-12T08:16:59;102098.91;;;12.98;57.46
28428;BME280;15662;49.128;8.520;2022-11-12T08:19:46;102113.91;;;13.05;57.68
28428;BME280;15662;49.128;8.520;2022-11-12T08:22:33;102106.84;;;13.04;57.30
28428;BME280;15662;49.128;8.520;2022-11-12T08:25:19;102107.69;;;13.10;57.36
28428;BME280;15662;49.128;8.520;2022-11-12T08:28:06;102089.09;;;13.06;57.32
28428;BME280;15662;49.128;8.520;2022-11-12T08:30:53;102107.59;;;13.18;57.36
28428;BME280;15662;49.128;8.520;2022-11-12T12:14:46;102057.97;;;14.59;56.18
28428;BME280;15662;49.128;8.520;2022-11-12T12:18:40;102051.63;;;14.66;56.06
28428;BME280;15662;49.128;8.520;2022-11-12T12:24:02;102048.97;;;14.66;56.10
28428;BME280;15662;49.128;8.520;2022-11-12T18:05:08;101818.72;;;14.07;56.74
28428;BME280;15662;49.128;8.520;2022-11-12T18:07:56;101811.66;;;14.04;56.75
28428;BME280;15662;49.128;8.520;2022-11-12T18:10:45;101800.97;;;14.06;56.74
28428;BME280;15662;49.128;8.520;2022-11-12T18:13:32;101802.75;;;14.05;56.75
28428;BME280;15662;49.128;8.520;2022-11-12T18:16:28;101811.59;;;14.09;56.55
28428;BME280;15662;49.128;8.520;2022-11-12T18:19:17;101808.97;;;14.06;56.74
28428;BME280;15662;49.128;8.520;2022-11-12T18:22:04;101811.59;;;14.07;56.64
28428;BME280;15662;49.128;8.520;2022-11-12T18:24:51;101819.59;;;14.07;56.54
28428;BME280;15662;49.128;8.520;2022-11-12T18:27:38;101810.75;;;14.04;56.78
28428;BME280;15662;49.128;8.520;2022-11-12T18:30:25;101820.53;;;14.05;56.77
28428;BME280;15662;49.128;8.520;2022-11-12T18:33:11;101821.38;;;14.07;56.81
28428;BME280;15662;49.128;8.520;2022-11-12T18:36:10;101809.78;;;14.08;56.71
28428;BME280;15662;49.128;8.520;2022-11-12T18:38:58;101814.31;;;14.04;56.85
28428;BME280;15662;49.128;8.520;2022-11-12T18:41:46;101811.66;;;14.03;56.80
28428;BME280;15662;49.128;8.520;2022-11-12T18:44:32;101799.44;;;13.91;56.98
28428;BME280;15662;49.128;8.520;2022-11-12T18:47:20;101813.56;;;13.96;56.78
28428;BME280;15662;49.128;8.520;2022-11-12T18:50:08;101808.31;;;13.91;56.79
28428;BME280;15662;49.128;8.520;2022-11-12T18:52:55;101810.06;;;13.92;57.01
28428;BME280;15662;49.128;8.520;2022-11-12T18:55:42;101805.63;;;13.91;57.06
28428;BME280;15662;49.128;8.520;2022-11-12T18:58:29;101810.13;;;13.89;57.08
28428;BME280;15662;49.128;8.520;2022-11-12T19:01:22;101803.00;;;13.90;57.05
28428;BME280;15662;49.128;8.520;2022-11-12T19:04:10;101800.41;;;13.85;57.19
28428;BME280;15662;49.128;8.520;2022-11-12T19:06:57;101795.09;;;13.84;57.31
28428;BME280;15662;49.128;8.520;2022-11-12T19:09:44;101790.66;;;13.83;57.14
28428;BME280;15662;49.128;8.520;2022-11-12T19:12:30;101793.31;;;13.86;57.00
28428;BME280;15662;49.128;8.520;2022-11-12T19:15:17;101790.66;;;13.83;56.98
28428;BME280;15662;49.128;8.520;2022-11-12T19:18:13;101783.66;;;13.77;57.13
28428;BME280;15662;49.128;8.520;2022-11-12T19:21:07;101789.84;;;13.81;57.21
28428;BME280;15662;49.128;8.520;2022-11-12T19:23:55;101788.97;;;13.79;57.15
28428;BME280;15662;49.128;8.520;2022-11-12T19:26:42;101783.78;;;13.71;57.05
28428;BME280;15662;49.128;8.520;2022-11-12T19:29:30;101785.50;;;13.74;57.20
28428;BME280;15662;49.128;8.520;2022-11-12T19:32:17;101777.53;;;13.72;57.21
28428;BME280;15662;49.128;8.520;2022-11-12T19:35:13;101779.31;;;13.72;57.45
28428;BME280;15662;49.128;8.520;2022-11-12T19:38:00;101780.28;;;13.67;57.09
28428;BME280;15662;49.128;8.520;2022-11-12T19:40:48;101780.28;;;13.67;57.32
28428;BME280;15662;49.128;8.520;2022-11-12T19:43:36;101781.16;;;13.68;57.35
28428;BME280;15662;49.128;8.520;2022-11-12T19:46:25;101780.28;;;13.67;57.50
28428;BME280;15662;49.128;8.520;2022-11-12T19:49:13;101756.50;;;13.55;57.49
28428;BME280;15662;49.128;8.520;2022-11-12T19:51:59;101768.78;;;13.64;57.56
28428;BME280;15662;49.128;8.520;2022-11-12T19:54:49;101756.41;;;13.61;57.53
28428;BME280;15662;49.128;8.520;2022-11-12T19:57:36;101771.44;;;13.65;57.35
28428;BME280;15662;49.128;8.520;2022-11-12T20:00:23;101776.75;;;13.65;57.40
28428;BME280;15662;49.128;8.520;2022-11-12T20:03:10;101755.44;;;13.64;57.31
28428;BME280;15662;49.128;8.520;2022-11-12T20:06:06;101757.22;;;13.65;57.35
28428;BME280;15662;49.128;8.520;2022-11-12T20:08:57;101756.28;;;13.67;57.19
28428;BME280;15662;49.128;8.520;2022-11-12T20:11:49;101756.28;;;13.67;57.46
28428;BME280;15662;49.128;8.520;2022-11-12T20:14:36;101760.63;;;13.75;57.43
28428;BME280;15662;49.128;8.520;2022-11-12T20:17:23;101747.31;;;13.73;57.29
28428;BME280;15662;49.128;8.520;2022-11-12T20:20:10;101750.84;;;13.75;57.23
28428;BME280;15662;49.128;8.520;2022-11-12T20:22:57;101743.81;;;13.71;57.31
28428;BME280;15662;49.128;8.520;2022-11-12T20:25:44;101750.78;;;13.78;57.34
28428;BME280;15662;49.128;8.520;2022-11-12T20:28:36;101741.03;;;13.77;57.29
28428;BME280;15662;49.128;8.520;2022-11-12T20:31:23;101746.31;;;13.79;57.33
28428;BME280;15662;49.128;8.520;2022-11-12T20:34:11;101741.88;;;13.81;57.33
28428;BME280;15662;49.128;8.520;2022-11-12T20:36:58;101742.72;;;13.81;57.30
28428;BME280;15662;49.128;8.520;2022-11-12T20:39:45;101747.22;;;13.79;57.24
28428;BME280;15662;49.128;8.520;2022-11-12T20:42:32;101743.66;;;13.79;57.04
28428;BME280;15662;49.128;8.520;2022-11-12T20:45:19;101745.47;;;13.77;57.00
